Time;durP1;ratioP1;P1;durP2;ratioP2;P2;SDS_P1;SDS_P2;PMS_P1;PMS_P2;Temp;Humidity;BMP_temperature;BMP_pressure;BME280_temperature;BME280_humidity;BME280_pressure;Samples;Min_cycle;Max_cycle;Signal;HPM_P1;HPM_P2
2022/12/14 00:02:05;;;;;;;42.50;20.60;;;;;;;-3.91;59.44;98760.73;222736;1240;138326;-72
2022/12/14 00:14:38;;;;;;;45.90;20.10;;;;;;;-4.09;59.35;98756.73;222401;1248;137876;-70
2022/12/14 00:21:02;;;;;;;45.80;20.80;;;;;;;-4.21;59.37;98755.79;223216;1240;137442;-70
2022/12/14 00:26:54;;;;;;;41.10;20.30;;;;;;;-4.36;59.22;98752.94;222638;1241;137417;-71
2022/12/14 00:32:19;;;;;;;47.00;22.00;;;;;;;-4.41;59.15;98746.23;223055;1243;138071;-70
2022/12/14 00:45:22;;;;;;;;;;;;;;;;;;;;;
2022/12/14 00:51:17;;;;;;;63.10;28.20;;;;;;;-4.73;58.52;98746.94;222194;1240;138631;-64
2022/12/14 01:23:59;;;;;;;61.80;29.90;;;;;;;-5.17;58.30;98741.95;221243;1249;635431;-73
2022/12/14 01:30:29;;;;;;;;;;;;;;;;;;;;;
2022/12/14 01:55:34;;;;;;;50.60;25.50;;;;;;;-5.84;58.15;98724.02;220943;1253;635884;-64
2022/12/14 02:00:52;;;;;;;53.70;27.50;;;;;;;-5.94;57.97;98721.61;222703;1233;140165;-63
2022/12/14 02:23:59;;;;;;;57.00;27.50;;;;;;;-6.25;58.45;98716.13;213026;1250;5496052;-65
2022/12/14 02:30:49;;;;;;;60.60;27.60;;;;;;;-6.27;58.21;98713.90;221581;1247;201654;-64
2022/12/14 02:37:39;;;;;;;55.10;27.10;;;;;;;-6.18;57.95;98708.54;222225;1244;138943;-63
2022/12/14 02:44:24;;;;;;;59.90;26.50;;;;;;;-6.14;57.48;98704.91;222334;1245;139218;-66
2022/12/14 03:04:56;;;;;;;46.60;23.80;;;;;;;-6.42;57.36;98693.70;221492;1251;94021;-64
2022/12/14 03:28:19;;;;;;;50.40;23.50;;;;;;;-6.69;57.33;98679.36;222191;1241;138445;-66
2022/12/14 03:44:05;;;;;;;51.50;26.40;;;;;;;-6.66;57.56;98686.44;221033;1250;644336;-69
2022/12/14 04:09:38;;;;;;;50.20;25.90;;;;;;;-6.73;56.89;98665.73;222581;1240;137733;-68
2022/12/14 04:39:59;;;;;;;57.80;29.80;;;;;;;-6.78;57.57;98651.23;220979;1246;635690;-64
2022/12/14 04:52:23;;;;;;;60.60;26.40;;;;;;;-6.76;57.82;98642.79;221779;1248;138108;-66
2022/12/14 04:57:55;;;;;;;55.40;26.80;;;;;;;-6.74;58.03;98639.86;221831;1246;138167;-65
2022/12/14 05:03:57;;;;;;;67.10;26.70;;;;;;;-6.65;58.73;98635.38;220870;1244;138720;-67
2022/12/14 05:36:10;;;;;;;42.90;23.20;;;;;;;-6.09;57.76;98593.02;222911;1242;137610;-64
2022/12/14 05:42:38;;;;;;;54.90;28.00;;;;;;;-6.20;57.35;98592.20;222921;1242;137522;-65
2022/12/14 05:48:29;;;;;;;57.20;27.20;;;;;;;-6.39;57.76;98595.16;223603;1240;139539;-65
2022/12/14 05:53:57;;;;;;;95.00;45.80;;;;;;;-5.59;67.45;98591.64;223286;1242;138582;-64
2022/12/14 05:59:14;;;;;;;62.50;28.80;;;;;;;-4.78;59.60;98584.16;223578;1240;138828;-64
2022/12/14 06:05:04;;;;;;;64.20;29.30;;;;;;;-5.33;57.32;98590.23;223451;1241;138144;-63
2022/12/14 06:10:18;;;;;;;61.80;30.10;;;;;;;-5.77;57.23;98599.45;223750;1239;138823;-63
2022/12/14 06:15:31;;;;;;;62.60;30.60;;;;;;;-6.03;57.61;98604.59;223947;1237;138408;-64
2022/12/14 06:20:43;;;;;;;59.20;29.60;;;;;;;-6.18;58.30;98607.38;224393;1237;138720;-65
2022/12/14 06:26:12;;;;;;;138.30;64.10;;;;;;;-6.19;60.35;98604.27;223390;1243;138401;-68
2022/12/14 06:31:49;;;;;;;59.40;29.40;;;;;;;-6.04;60.71;98593.52;223569;1242;139340;-71
2022/12/14 06:38:15;;;;;;;59.80;29.10;;;;;;;-6.04;59.84;98586.11;223542;1244;138095;-70
2022/12/14 06:44:13;;;;;;;58.00;29.00;;;;;;;-6.02;59.55;98576.08;223216;1240;138251;-67
2022/12/14 06:50:05;;;;;;;60.70;30.10;;;;;;;-6.02;59.60;98574.69;223302;1241;139050;-67
2022/12/14 07:07:30;;;;;;;70.70;36.50;;;;;;;-5.79;61.41;98590.29;221925;1243;654582;-68
2022/12/14 07:42:25;;;;;;;64.80;34.30;;;;;;;-5.74;60.98;98557.29;221971;1246;636516;-72
2022/12/14 07:47:30;;;;;;;70.50;35.70;;;;;;;-5.70;61.16;98557.61;223348;1236;137490;-73
2022/12/14 07:52:34;;;;;;;69.20;34.90;;;;;;;-5.61;61.05;98548.23;223558;1236;137556;-74
2022/12/14 07:57:50;;;;;;;242.40;113.90;;;;;;;-5.49;61.80;98548.16;223146;1240;138338;-72
2022/12/14 09:04:24;;;;;;;68.30;35.80;;;;;;;-4.75;59.89;98512.15;221001;1253;635807;-69
2022/12/14 09:20:17;;;;;;;75.30;38.60;;;;;;;-4.48;59.77;98483.67;222081;1249;655342;-66
2022/12/14 09:25:34;;;;;;;71.30;37.30;;;;;;;-4.37;59.68;98479.05;223399;1237;138284;-72
2022/12/14 09:30:47;;;;;;;;;;;;;;;-4.30;59.67;98478.80;223114;1240;139417;-70
2022/12/14 09:36:01;;;;;;;;;;;;;;;-4.20;59.97;98477.46;222961;1240;124535;-70
2022/12/14 09:41:29;;;;;;;72.00;36.30;;;;;;;-4.11;59.88;98477.52;223128;1237;124804;-65
2022/12/14 09:47:02;;;;;;;76.50;37.60;;;;;;;-4.05;59.70;98473.30;222995;1240;137634;-67
2022/12/14 09:52:39;;;;;;;77.70;38.40;;;;;;;-3.99;59.60;98471.66;224622;1233;138616;-66
2022/12/14 09:58:04;;;;;;;111.40;55.10;;;;;;;-3.92;59.44;98468.62;224553;1233;138995;-66
2022/12/14 10:03:24;;;;;;;75.50;39.50;;;;;;;-3.77;60.26;98451.61;223719;1230;138100;-66
2022/12/14 10:08:42;;;;;;;71.60;37.10;;;;;;;-3.69;59.46;98436.07;223676;1235;138281;-66
2022/12/14 10:14:14;;;;;;;76.10;37.30;;;;;;;-3.67;59.25;98434.48;223931;1234;138975;-67
2022/12/14 10:20:47;;;;;;;;;;;;;;;;;;;;;
2022/12/14 10:28:09;;;;;;;69.60;35.80;;;;;;;-3.54;59.00;98437.41;221217;1251;635451;-66
2022/12/14 10:33:51;;;;;;;73.60;35.90;;;;;;;-3.52;58.85;98441.35;223128;1240;138126;-68
2022/12/14 10:40:03;;;;;;;69.50;32.20;;;;;;;-3.42;58.96;98429.42;222909;1240;138573;-69
2022/12/14 10:46:23;;;;;;;68.90;35.20;;;;;;;-3.34;58.95;98418.52;222704;1233;138140;-65
2022/12/14 10:52:17;;;;;;;;;;;;;;;;;;;;;
2022/12/14 10:58:21;;;;;;;75.20;35.20;;;;;;;-3.22;58.94;98382.95;222474;1243;138479;-66
2022/12/14 11:03:27;;;;;;;72.50;37.60;;;;;;;-3.18;58.73;98389.30;222430;1248;138331;-69
2022/12/14 11:08:46;;;;;;;77.30;38.20;;;;;;;-3.15;58.63;98385.27;222818;1240;137710;-69
2022/12/14 11:14:16;;;;;;;70.20;34.50;;;;;;;-3.09;58.78;98372.83;223106;1240;138479;-67
2022/12/14 11:19:22;;;;;;;66.60;35.00;;;;;;;-3.04;59.00;98357.48;225042;1243;138125;-67
2022/12/14 11:24:27;;;;;;;67.90;34.50;;;;;;;-3.00;58.89;98353.41;225337;1250;139167;-67
2022/12/14 11:29:32;;;;;;;;;;;;;;;-2.99;58.76;98345.06;225872;1238;138420;-66
2022/12/14 11:34:54;;;;;;;74.10;36.10;;;;;;;-2.93;58.95;98344.23;226493;1232;124984;-65
2022/12/14 11:40:00;;;;;;;65.60;34.70;;;;;;;-2.84;58.95;98340.44;226070;1238;139065;-65
2022/12/14 11:45:24;;;;;;;63.10;31.60;;;;;;;-2.73;58.92;98334.14;227300;1234;138765;-65
2022/12/14 11:50:33;;;;;;;64.10;31.90;;;;;;;-2.64;58.76;98327.52;226228;1240;137973;-66
2022/12/14 11:55:42;;;;;;;63.90;32.30;;;;;;;-2.58;58.63;98325.86;226052;1244;137715;-68
2022/12/14 12:01:04;;;;;;;62.60;30.90;;;;;;;-2.57;58.95;98317.32;227211;1237;138063;-67
2022/12/14 12:06:42;;;;;;;233.10;111.20;;;;;;;-2.52;59.15;98313.40;227187;1234;138248;-71
2022/12/14 12:11:45;;;;;;;72.10;38.20;;;;;;;-2.38;59.21;98313.77;226086;1241;138443;-69
2022/12/14 12:16:48;;;;;;;69.70;35.20;;;;;;;-2.35;58.60;98303.64;226153;1245;138092;-70
2022/12/14 12:21:53;;;;;;;64.60;33.50;;;;;;;-2.34;58.67;98294.07;226138;1241;138394;-69
2022/12/14 12:27:12;;;;;;;65.10;34.00;;;;;;;-2.34;58.39;98284.36;227496;1247;138216;-69
2022/12/14 12:32:23;;;;;;;67.40;34.30;;;;;;;-2.33;58.45;98279.64;226019;1242;138859;-68
2022/12/14 12:37:43;;;;;;;72.20;36.20;;;;;;;-2.30;58.47;98273.48;225935;1242;138416;-70
2022/12/14 12:43:20;;;;;;;71.10;36.00;;;;;;;-2.28;58.46;98255.38;226890;1236;138831;-69
2022/12/14 12:48:32;;;;;;;67.20;34.90;;;;;;;-2.29;58.65;98248.45;226064;1239;138468;-69
2022/12/14 12:53:42;;;;;;;69.00;35.80;;;;;;;-2.31;58.79;98229.73;226357;1244;138299;-69
2022/12/14 12:58:49;;;;;;;68.10;32.80;;;;;;;-2.29;59.08;98222.39;226374;1247;138160;-70
2022/12/14 13:04:09;;;;;;;73.70;36.30;;;;;;;-2.28;59.24;98222.02;226337;1244;138353;-68
2022/12/14 13:09:20;;;;;;;74.40;36.30;;;;;;;-2.30;59.72;98210.77;226169;1240;138898;-67
2022/12/14 13:14:27;;;;;;;68.80;37.40;;;;;;;-2.33;59.91;98210.15;226279;1241;138882;-66
2022/12/14 13:19:46;;;;;;;69.80;37.10;;;;;;;-2.38;59.87;98196.89;227022;1241;138589;-67
2022/12/14 13:24:58;;;;;;;76.40;38.90;;;;;;;-2.40;60.52;98182.52;226202;1240;137822;-67
2022/12/14 13:30:10;;;;;;;79.20;39.40;;;;;;;-2.45;60.59;98172.92;226431;1243;140294;-68
2022/12/14 13:35:41;;;;;;;78.50;38.90;;;;;;;-2.50;60.73;98167.31;225986;1242;138447;-69
2022/12/14 13:40:53;;;;;;;76.50;39.60;;;;;;;-2.54;61.01;98154.73;226054;1244;138503;-70
2022/12/14 13:46:06;;;;;;;72.50;38.30;;;;;;;-2.52;61.00;98140.63;226344;1235;138288;-69
2022/12/14 13:51:28;;;;;;;78.20;38.20;;;;;;;-2.53;61.03;98125.71;226069;1247;138492;-67
2022/12/14 13:56:38;;;;;;;77.00;40.40;;;;;;;-2.51;61.15;98108.84;225810;1240;138427;-71
2022/12/14 14:01:55;;;;;;;77.20;38.70;;;;;;;-2.49;61.15;98096.09;225922;1238;138749;-65
2022/12/14 14:08:10;;;;;;;73.70;38.00;;;;;;;-2.47;61.22;98084.58;226300;1240;138683;-68
2022/12/14 14:13:25;;;;;;;70.60;37.80;;;;;;;-2.47;61.11;98070.50;225743;1240;139002;-68
2022/12/14 14:18:33;;;;;;;68.80;36.60;;;;;;;-2.43;61.23;98062.44;226545;1249;138536;-68
2022/12/14 14:23:55;;;;;;;68.10;36.00;;;;;;;-2.40;61.49;98055.39;226322;1248;138355;-66
2022/12/14 14:29:23;;;;;;;68.90;36.20;;;;;;;-2.38;61.73;98050.30;226193;1244;138616;-66
2022/12/14 14:34:41;;;;;;;78.30;38.20;;;;;;;-2.35;61.71;98042.25;226517;1231;139278;-68
2022/12/14 14:39:56;;;;;;;74.30;40.10;;;;;;;-2.34;61.76;98037.88;226142;1228;138434;-68
2022/12/14 14:45:49;;;;;;;72.90;38.30;;;;;;;-2.33;61.73;98022.74;226313;1243;139097;-67
2022/12/14 14:51:16;;;;;;;108.30;55.70;;;;;;;-2.30;63.00;98013.63;227413;1238;138580;-65
2022/12/14 14:57:02;;;;;;;85.50;43.60;;;;;;;-2.22;62.26;98000.73;226378;1231;138318;-65
2022/12/14 15:02:42;;;;;;;81.50;40.30;;;;;;;-2.25;62.07;97981.52;226503;1233;139129;-64
2022/12/14 15:07:57;;;;;;;82.60;44.30;;;;;;;-2.25;62.38;97955.98;226732;1238;139261;-65
2022/12/14 15:13:20;;;;;;;59.70;33.10;;;;;;;-2.24;62.59;97944.51;226351;1243;138335;-65
2022/12/14 15:18:30;;;;;;;79.50;42.70;;;;;;;-2.21;62.66;97941.98;226536;1238;139753;-67
2022/12/14 15:23:38;;;;;;;90.00;46.80;;;;;;;-2.19;62.44;97945.21;226757;1234;138203;-65
2022/12/14 15:28:56;;;;;;;89.10;45.50;;;;;;;-2.21;62.65;97929.12;226714;1237;137837;-67
2022/12/14 15:34:02;;;;;;;94.60;45.70;;;;;;;-2.22;62.80;97926.04;226677;1237;138869;-67
2022/12/14 15:39:28;;;;;;;82.60;44.40;;;;;;;-2.24;62.88;97915.30;226936;1206;138814;-69
2022/12/14 15:44:34;;;;;;;96.40;46.60;;;;;;;-2.22;63.32;97903.10;226235;1234;138604;-66
2022/12/14 15:49:45;;;;;;;89.90;45.80;;;;;;;-2.20;63.39;97891.04;227444;1230;138583;-67
2022/12/14 15:55:00;;;;;;;84.30;45.00;;;;;;;-2.17;63.36;97889.73;227245;1241;138164;-66
2022/12/14 16:00:30;;;;;;;82.20;43.50;;;;;;;-2.13;63.84;97888.41;225890;1240;137764;-66
2022/12/14 16:06:00;;;;;;;81.10;42.70;;;;;;;-2.11;64.06;97867.02;225198;1237;138815;-66
2022/12/14 16:13:01;;;;;;;85.60;43.80;;;;;;;-2.06;64.63;97845.65;226031;1234;138826;-65
2022/12/14 16:19:04;;;;;;;79.70;41.20;;;;;;;-2.00;65.05;97842.30;226109;1236;138234;-67
2022/12/14 16:24:36;;;;;;;83.00;40.90;;;;;;;-1.94;65.49;97839.86;226539;1240;138481;-66
2022/12/14 16:30:15;;;;;;;70.10;38.20;;;;;;;-1.87;65.70;97827.51;226222;1238;138230;-67
2022/12/14 16:36:01;;;;;;;508.20;281.30;;;;;;;-1.78;66.31;97815.54;225872;1243;138168;-71
2022/12/14 16:41:34;;;;;;;71.20;38.00;;;;;;;-1.46;66.51;97811.20;226105;1240;139290;-67
2022/12/14 16:47:25;;;;;;;66.50;37.10;;;;;;;-1.31;66.43;97800.42;225937;1244;138620;-67
2022/12/14 16:52:30;;;;;;;69.20;35.00;;;;;;;-1.17;66.35;97806.37;226167;1238;137916;-67
2022/12/14 16:57:39;;;;;;;57.10;31.10;;;;;;;-1.08;66.58;97796.48;227169;1238;137881;-67
2022/12/14 17:02:51;;;;;;;52.40;29.00;;;;;;;-0.98;66.64;97801.02;226162;1243;138967;-67
2022/12/14 17:07:56;;;;;;;44.70;24.20;;;;;;;-0.88;66.81;97803.44;226259;1243;138335;-68
2022/12/14 17:13:18;;;;;;;25.10;15.60;;;;;;;-0.85;67.12;97797.58;226489;1244;138255;-68
2022/12/14 17:18:43;;;;;;;31.80;18.70;;;;;;;-0.74;67.39;97797.86;226219;1241;138560;-67
2022/12/14 17:23:50;;;;;;;32.80;18.30;;;;;;;-0.67;67.60;97799.17;226043;1237;139451;-66
2022/12/14 17:28:56;;;;;;;53.90;30.80;;;;;;;-0.56;68.52;97800.70;226885;1237;138152;-67
2022/12/14 17:34:26;;;;;;;31.20;16.90;;;;;;;-0.46;67.98;97797.05;226120;1235;138327;-67
2022/12/14 17:39:38;;;;;;;27.60;15.00;;;;;;;-0.44;67.98;97798.70;226864;1236;138220;-70
2022/12/14 17:44:54;;;;;;;22.20;11.80;;;;;;;-0.42;68.05;97793.18;225904;1240;138145;-68
2022/12/14 17:50:23;;;;;;;20.60;10.80;;;;;;;-0.38;68.17;97793.73;227228;1232;139333;-69
2022/12/14 17:55:29;;;;;;;15.50;9.50;;;;;;;-0.31;68.20;97792.58;227138;1228;138561;-66
2022/12/14 18:06:44;;;;;;;20.30;11.40;;;;;;;0.23;68.09;97783.98;227047;1237;138955;-67
2022/12/14 18:11:53;;;;;;;17.00;10.60;;;;;;;0.22;67.43;97781.62;226445;1243;138062;-67
2022/12/14 18:17:19;;;;;;;20.20;11.50;;;;;;;0.20;67.48;97769.63;226559;1237;138073;-66
2022/12/14 18:22:33;;;;;;;16.90;11.10;;;;;;;0.21;67.39;97769.27;226478;1244;138504;-67
2022/12/14 18:27:38;;;;;;;16.30;10.40;;;;;;;0.14;67.12;97756.31;227427;1241;138292;-68
2022/12/14 18:32:49;;;;;;;18.90;11.00;;;;;;;0.03;67.29;97757.80;226298;1244;137915;-67
2022/12/14 18:38:04;;;;;;;19.40;11.40;;;;;;;-0.02;67.39;97754.66;226754;1240;138085;-68
2022/12/14 18:43:18;;;;;;;17.60;10.70;;;;;;;0.02;67.55;97741.81;226921;1234;138580;-68
2022/12/14 18:48:23;;;;;;;18.60;10.90;;;;;;;-0.02;67.68;97729.92;225825;1241;138092;-67
2022/12/14 18:53:31;;;;;;;20.40;13.10;;;;;;;-0.08;67.73;97714.81;226126;1245;138324;-68
2022/12/14 18:58:39;;;;;;;17.60;10.80;;;;;;;-0.01;68.45;97711.40;225940;1241;139544;-67
2022/12/14 19:03:43;;;;;;;19.10;11.30;;;;;;;0.12;67.72;97709.29;226934;1231;139187;-68
2022/12/14 19:08:48;;;;;;;19.70;11.70;;;;;;;0.14;67.48;97700.48;226048;1240;138296;-67
2022/12/14 19:13:54;;;;;;;19.80;11.40;;;;;;;0.13;67.23;97689.89;226112;1244;138166;-67
2022/12/14 19:18:59;;;;;;;19.50;12.00;;;;;;;0.09;67.21;97684.48;226065;1243;138303;-67
2022/12/14 19:24:07;;;;;;;21.70;12.00;;;;;;;0.06;67.38;97677.83;226023;1246;139678;-68
2022/12/14 19:29:11;;;;;;;21.90;12.60;;;;;;;0.13;67.39;97669.66;227134;1237;138983;-67
2022/12/14 19:34:21;;;;;;;18.20;11.40;;;;;;;0.11;67.35;97665.61;226226;1239;138356;-68
2022/12/14 19:39:32;;;;;;;17.40;11.10;;;;;;;0.18;68.67;97665.64;225873;1234;138095;-67
2022/12/14 19:44:37;;;;;;;19.70;11.40;;;;;;;0.14;67.40;97656.73;225785;1247;138251;-67
2022/12/14 19:49:42;;;;;;;19.70;12.00;;;;;;;0.04;67.40;97644.98;225952;1227;138636;-69
2022/12/14 19:54:46;;;;;;;20.50;12.00;;;;;;;-0.01;67.74;97637.83;225999;1238;138314;-67
2022/12/14 19:59:51;;;;;;;17.70;10.60;;;;;;;-0.05;67.69;97642.55;227014;1244;139638;-67
2022/12/14 20:04:56;;;;;;;19.90;11.60;;;;;;;-0.06;67.77;97638.92;226058;1240;138442;-67
2022/12/14 20:10:11;;;;;;;19.70;11.30;;;;;;;-0.06;67.86;97623.23;226284;1240;138777;-69
2022/12/14 20:15:18;;;;;;;47.00;26.70;;;;;;;0.20;70.75;97618.61;225979;1240;138816;-67
2022/12/14 20:20:25;;;;;;;19.70;11.70;;;;;;;0.39;67.98;97624.63;225748;1239;138855;-67
2022/12/14 20:25:32;;;;;;;20.00;12.30;;;;;;;0.35;67.39;97633.00;225884;1241;139038;-68
2022/12/14 20:30:45;;;;;;;21.20;13.50;;;;;;;0.33;67.15;97634.30;226093;1237;138724;-67
2022/12/14 20:35:50;;;;;;;22.20;12.90;;;;;;;0.31;67.11;97641.19;227472;1230;138721;-67
2022/12/14 20:40:55;;;;;;;19.60;12.40;;;;;;;0.27;67.18;97629.48;227151;1247;138484;-66
2022/12/14 20:45:58;;;;;;;21.50;12.70;;;;;;;0.20;67.12;97630.50;225916;1241;138317;-69
2022/12/14 20:51:02;;;;;;;20.30;12.30;;;;;;;0.16;67.37;97623.13;226960;1237;138628;-68
2022/12/14 20:56:07;;;;;;;23.10;12.70;;;;;;;0.14;67.28;97628.31;225892;1241;139263;-69
2022/12/14 21:01:12;;;;;;;21.90;13.50;;;;;;;0.12;67.31;97632.77;227336;1248;138892;-69
2022/12/14 21:06:24;;;;;;;51.50;33.40;;;;;;;0.10;67.90;97629.34;227203;1247;138003;-69
2022/12/14 21:16:51;;;;;;;21.70;12.70;;;;;;;0.23;67.58;97631.57;226970;1248;138132;-69
2022/12/14 21:21:55;;;;;;;21.70;12.50;;;;;;;0.17;67.53;97631.30;226925;1230;138779;-66
2022/12/14 21:27:16;;;;;;;140.20;85.40;;;;;;;0.14;67.99;97636.88;226910;1237;138108;-70
2022/12/14 21:32:20;;;;;;;29.80;17.10;;;;;;;0.21;68.20;97635.67;227076;1237;138143;-68
2022/12/14 21:37:24;;;;;;;24.70;13.50;;;;;;;0.22;67.85;97636.66;225735;1240;138920;-68
2022/12/14 21:42:27;;;;;;;23.20;14.50;;;;;;;0.17;67.69;97634.80;225882;1241;138329;-68
2022/12/14 21:47:31;;;;;;;24.10;13.30;;;;;;;0.19;67.90;97640.98;226399;1241;138588;-67
2022/12/14 21:52:34;;;;;;;21.90;14.30;;;;;;;0.26;67.83;97641.04;225924;1235;138670;-67
2022/12/14 22:02:59;;;;;;;24.40;14.30;;;;;;;0.43;67.97;97642.73;227180;1239;138472;-73
2022/12/14 22:08:03;;;;;;;42.60;26.20;;;;;;;0.48;68.23;97644.27;226015;1240;138766;-67
2022/12/14 22:13:06;;;;;;;24.20;14.90;;;;;;;0.61;68.36;97641.97;226005;1247;138264;-66
2022/12/14 22:18:09;;;;;;;25.00;13.70;;;;;;;0.55;67.36;97642.90;225908;1251;139729;-67
2022/12/14 22:23:13;;;;;;;20.20;12.40;;;;;;;0.48;67.20;97634.52;226077;1237;138337;-67
2022/12/14 22:28:16;;;;;;;22.70;13.80;;;;;;;0.41;67.19;97637.09;226152;1234;138672;-67
2022/12/14 22:33:19;;;;;;;24.50;14.50;;;;;;;0.35;67.49;97634.89;226072;1251;138927;-68
2022/12/14 22:38:23;;;;;;;21.90;13.70;;;;;;;0.31;67.55;97639.80;225859;1241;138490;-68
2022/12/14 22:43:27;;;;;;;25.10;13.60;;;;;;;0.29;67.46;97643.21;226336;1237;138566;-67
2022/12/14 22:48:39;;;;;;;27.50;14.60;;;;;;;0.25;67.72;97636.23;226147;1241;139868;-67
2022/12/14 22:53:42;;;;;;;23.00;14.10;;;;;;;0.22;67.65;97632.15;226021;1237;138838;-68
2022/12/14 22:59:00;;;;;;;26.20;15.40;;;;;;;0.20;67.79;97632.41;227136;1230;137953;-67
2022/12/14 23:04:08;;;;;;;27.90;14.70;;;;;;;0.17;67.74;97625.73;226217;1240;138168;-67
